sensor_id;sensor_type;location;lat;lon;timestamp;temperature;humidity
37032;DHT22;22940;52.266;10.536;2023-03-23T00:02:29;14.40;1.00
37032;DHT22;22940;52.266;10.536;2023-03-23T00:04:58;14.40;1.00
37032;DHT22;22940;52.266;10.536;2023-03-23T00:07:25;14.30;1.00
37032;DHT22;22940;52.266;10.536;2023-03-23T00:09:54;14.20;1.00
37032;DHT22;22940;52.266;10.536;2023-03-23T00:12:20;14.30;1.00
37032;DHT22;22940;52.266;10.536;2023-03-23T00:14:46;14.30;1.00
37032;DHT22;22940;52.266;10.536;2023-03-23T00:17:12;14.30;1.00
37032;DHT22;22940;52.266;10.536;2023-03-23T00:19:39;14.20;1.00
37032;DHT22;22940;52.266;10.536;2023-03-23T00:22:14;14.20;1.00
37032;DHT22;22940;52.266;10.536;2023-03-23T00:24:41;14.30;1.00
37032;DHT22;22940;52.266;10.536;2023-03-23T00:27:07;14.30;1.00
37032;DHT22;22940;52.266;10.536;2023-03-23T00:29:34;14.30;1.00
37032;DHT22;22940;52.266;10.536;2023-03-23T00:31:59;14.30;1.00
37032;DHT22;22940;52.266;10.536;2023-03-23T00:34:25;14.30;1.00
37032;DHT22;22940;52.266;10.536;2023-03-23T00:36:51;14.30;1.00
37032;DHT22;22940;52.266;10.536;2023-03-23T00:39:18;14.20;1.00
37032;DHT22;22940;52.266;10.536;2023-03-23T00:41:44;14.30;1.00
37032;DHT22;22940;52.266;10.536;2023-03-23T00:44:10;14.20;1.00
37032;DHT22;22940;52.266;10.536;2023-03-23T00:46:46;14.30;1.00
37032;DHT22;22940;52.266;10.536;2023-03-23T00:49:14;14.30;1.00
37032;DHT22;22940;52.266;10.536;2023-03-23T00:51:40;14.20;1.00
37032;DHT22;22940;52.266;10.536;2023-03-23T00:54:06;14.20;1.00
37032;DHT22;22940;52.266;10.536;2023-03-23T00:56:32;14.10;1.00
37032;DHT22;22940;52.266;10.536;2023-03-23T00:58:57;14.10;1.00
37032;DHT22;22940;52.266;10.536;2023-03-23T01:01:23;14.00;1.00
37032;DHT22;22940;52.266;10.536;2023-03-23T01:03:48;13.90;1.00
37032;DHT22;22940;52.266;10.536;2023-03-23T01:06:15;13.90;1.00
37032;DHT22;22940;52.266;10.536;2023-03-23T01:08:40;13.90;1.00
37032;DHT22;22940;52.266;10.536;2023-03-23T01:11:14;13.90;1.00
37032;DHT22;22940;52.266;10.536;2023-03-23T01:13:40;13.90;1.00
37032;DHT22;22940;52.266;10.536;2023-03-23T01:16:07;13.90;1.00
37032;DHT22;22940;52.266;10.536;2023-03-23T01:18:32;14.00;1.00
37032;DHT22;22940;52.266;10.536;2023-03-23T01:21:02;13.90;1.00
37032;DHT22;22940;52.266;10.536;2023-03-23T01:23:28;13.90;1.00
37032;DHT22;22940;52.266;10.536;2023-03-23T01:25:53;13.90;1.00
37032;DHT22;22940;52.266;10.536;2023-03-23T01:28:22;13.90;1.00
37032;DHT22;22940;52.266;10.536;2023-03-23T01:30:48;14.00;1.00
37032;DHT22;22940;52.266;10.536;2023-03-23T01:33:13;13.90;1.00
37032;DHT22;22940;52.266;10.536;2023-03-23T01:35:39;14.00;1.00
37032;DHT22;22940;52.266;10.536;2023-03-23T01:38:05;13.90;1.00
37032;DHT22;22940;52.266;10.536;2023-03-23T01:40:31;13.80;1.00
37032;DHT22;22940;52.266;10.536;2023-03-23T01:42:57;13.90;1.00
37032;DHT22;22940;52.266;10.536;2023-03-23T01:45:24;13.80;1.00
37032;DHT22;22940;52.266;10.536;2023-03-23T01:47:52;13.80;1.00
37032;DHT22;22940;52.266;10.536;2023-03-23T01:50:21;13.80;1.00
37032;DHT22;22940;52.266;10.536;2023-03-23T01:52:48;13.70;1.00
37032;DHT22;22940;52.266;10.536;2023-03-23T01:55:14;13.90;1.00
37032;DHT22;22940;52.266;10.536;2023-03-23T01:57:41;13.80;1.00
37032;DHT22;22940;52.266;10.536;2023-03-23T02:00:07;13.70;1.00
37032;DHT22;22940;52.266;10.536;2023-03-23T02:02:43;13.70;1.00
37032;DHT22;22940;52.266;10.536;2023-03-23T02:05:21;13.50;1.00
37032;DHT22;22940;52.266;10.536;2023-03-23T02:07:48;13.50;1.00
37032;DHT22;22940;52.266;10.536;2023-03-23T02:10:15;13.40;1.00
37032;DHT22;22940;52.266;10.536;2023-03-23T02:12:40;13.50;1.00
37032;DHT22;22940;52.266;10.536;2023-03-23T02:15:06;13.50;1.00
37032;DHT22;22940;52.266;10.536;2023-03-23T02:20:06;13.50;1.00
37032;DHT22;22940;52.266;10.536;2023-03-23T02:32:49;13.50;1.00
37032;DHT22;22940;52.266;10.536;2023-03-23T02:35:22;13.50;1.00
37032;DHT22;22940;52.266;10.536;2023-03-23T02:37:50;13.40;1.00
37032;DHT22;22940;52.266;10.536;2023-03-23T02:40:19;13.40;1.00
37032;DHT22;22940;52.266;10.536;2023-03-23T02:42:46;13.40;1.00
37032;DHT22;22940;52.266;10.536;2023-03-23T02:45:13;13.40;1.00
37032;DHT22;22940;52.266;10.536;2023-03-23T02:47:39;13.40;1.00
37032;DHT22;22940;52.266;10.536;2023-03-23T02:50:07;13.30;1.00
37032;DHT22;22940;52.266;10.536;2023-03-23T02:52:34;13.30;1.00
37032;DHT22;22940;52.266;10.536;2023-03-23T02:55:02;13.20;1.00
37032;DHT22;22940;52.266;10.536;2023-03-23T02:57:28;13.30;1.00
37032;DHT22;22940;52.266;10.536;2023-03-23T02:59:54;13.20;1.00
37032;DHT22;22940;52.266;10.536;2023-03-23T03:02:21;13.20;1.00
37032;DHT22;22940;52.266;10.536;2023-03-23T03:04:52;13.20;1.00
37032;DHT22;22940;52.266;10.536;2023-03-23T03:09:54;13.20;1.00
37032;DHT22;22940;52.266;10.536;2023-03-23T03:12:40;13.20;1.00
37032;DHT22;22940;52.266;10.536;2023-03-23T03:17:38;13.20;1.00
37032;DHT22;22940;52.266;10.536;2023-03-23T03:20:05;13.20;1.00
37032;DHT22;22940;52.266;10.536;2023-03-23T03:22:35;13.10;1.00
37032;DHT22;22940;52.266;10.536;2023-03-23T03:25:02;13.00;1.00
37032;DHT22;22940;52.266;10.536;2023-03-23T03:27:29;12.90;1.00
37032;DHT22;22940;52.266;10.536;2023-03-23T03:29:58;12.90;1.00
37032;DHT22;22940;52.266;10.536;2023-03-23T03:32:31;12.90;1.00
37032;DHT22;22940;52.266;10.536;2023-03-23T03:35:00;12.90;1.00
37032;DHT22;22940;52.266;10.536;2023-03-23T03:37:26;12.90;1.00
37032;DHT22;22940;52.266;10.536;2023-03-23T03:39:51;12.80;1.00
37032;DHT22;22940;52.266;10.536;2023-03-23T03:42:17;12.80;1.00
37032;DHT22;22940;52.266;10.536;2023-03-23T03:44:42;12.70;1.00
37032;DHT22;22940;52.266;10.536;2023-03-23T03:47:08;12.70;1.00
37032;DHT22;22940;52.266;10.536;2023-03-23T03:49:33;12.60;6.70
37032;DHT22;22940;52.266;10.536;2023-03-23T03:51:59;12.60;18.30
37032;DHT22;22940;52.266;10.536;2023-03-23T03:54:24;12.70;21.30
37032;DHT22;22940;52.266;10.536;2023-03-23T03:56:50;12.60;23.90
37032;DHT22;22940;52.266;10.536;2023-03-23T03:59:17;12.60;28.60
37032;DHT22;22940;52.266;10.536;2023-03-23T04:01:42;12.60;40.10
37032;DHT22;22940;52.266;10.536;2023-03-23T04:04:08;12.60;60.00
37032;DHT22;22940;52.266;10.536;2023-03-23T04:06:33;12.60;64.80
37032;DHT22;22940;52.266;10.536;2023-03-23T04:09:01;12.50;64.80
37032;DHT22;22940;52.266;10.536;2023-03-23T04:11:31;12.50;64.90
37032;DHT22;22940;52.266;10.536;2023-03-23T04:13:56;12.50;69.60
37032;DHT22;22940;52.266;10.536;2023-03-23T04:16:22;12.60;68.60
37032;DHT22;22940;52.266;10.536;2023-03-23T04:18:47;12.50;68.50
37032;DHT22;22940;52.266;10.536;2023-03-23T04:21:13;12.50;72.80
37032;DHT22;22940;52.266;10.536;2023-03-23T04:23:39;12.50;72.90
37032;DHT22;22940;52.266;10.536;2023-03-23T04:26:05;12.50;79.30
37032;DHT22;22940;52.266;10.536;2023-03-23T04:28:31;12.60;89.40
37032;DHT22;22940;52.266;10.536;2023-03-23T04:30:59;12.60;93.20
37032;DHT22;22940;52.266;10.536;2023-03-23T04:33:26;12.50;95.20
37032;DHT22;22940;52.266;10.536;2023-03-23T04:35:52;12.40;99.90
37032;DHT22;22940;52.266;10.536;2023-03-23T04:38:19;12.50;99.90
37032;DHT22;22940;52.266;10.536;2023-03-23T04:40:45;12.50;99.90
37032;DHT22;22940;52.266;10.536;2023-03-23T04:43:11;12.40;99.90
37032;DHT22;22940;52.266;10.536;2023-03-23T04:45:37;12.40;99.90
37032;DHT22;22940;52.266;10.536;2023-03-23T04:48:06;12.50;99.90
37032;DHT22;22940;52.266;10.536;2023-03-23T04:50:32;12.50;99.90
37032;DHT22;22940;52.266;10.536;2023-03-23T04:52:59;12.50;99.90
37032;DHT22;22940;52.266;10.536;2023-03-23T04:55:32;12.50;99.90
37032;DHT22;22940;52.266;10.536;2023-03-23T04:58:04;12.50;99.90
37032;DHT22;22940;52.266;10.536;2023-03-23T05:00:31;12.50;99.90
37032;DHT22;22940;52.266;10.536;2023-03-23T05:02:56;12.50;99.90
37032;DHT22;22940;52.266;10.536;2023-03-23T05:05:22;12.50;99.90
37032;DHT22;22940;52.266;10.536;2023-03-23T05:07:48;12.50;99.90
37032;DHT22;22940;52.266;10.536;2023-03-23T05:10:14;12.50;99.90
37032;DHT22;22940;52.266;10.536;2023-03-23T05:12:41;12.40;99.90
37032;DHT22;22940;52.266;10.536;2023-03-23T05:15:08;12.50;99.90
37032;DHT22;22940;52.266;10.536;2023-03-23T05:17:34;12.40;99.90
37032;DHT22;22940;52.266;10.536;2023-03-23T05:20:00;12.40;99.90
37032;DHT22;22940;52.266;10.536;2023-03-23T05:22:26;12.30;99.90
37032;DHT22;22940;52.266;10.536;2023-03-23T05:24:52;12.20;99.90
37032;DHT22;22940;52.266;10.536;2023-03-23T05:27:17;12.30;99.90
37032;DHT22;22940;52.266;10.536;2023-03-23T05:29:44;12.30;99.90
37032;DHT22;22940;52.266;10.536;2023-03-23T05:32:11;12.30;99.90
37032;DHT22;22940;52.266;10.536;2023-03-23T05:34:36;12.30;99.90
37032;DHT22;22940;52.266;10.536;2023-03-23T05:37:03;12.30;99.90
37032;DHT22;22940;52.266;10.536;2023-03-23T05:39:29;12.30;99.90
37032;DHT22;22940;52.266;10.536;2023-03-23T05:41:56;12.30;99.90
37032;DHT22;22940;52.266;10.536;2023-03-23T05:44:21;12.30;99.90
37032;DHT22;22940;52.266;10.536;2023-03-23T05:46:47;12.40;99.90
37032;DHT22;22940;52.266;10.536;2023-03-23T05:49:13;12.40;99.90
37032;DHT22;22940;52.266;10.536;2023-03-23T05:51:39;12.40;99.90
37032;DHT22;22940;52.266;10.536;2023-03-23T05:54:05;12.50;99.90
37032;DHT22;22940;52.266;10.536;2023-03-23T05:56:30;12.50;99.90
37032;DHT22;22940;52.266;10.536;2023-03-23T05:58:56;12.50;99.90
37032;DHT22;22940;52.266;10.536;2023-03-23T06:01:22;12.50;99.90
37032;DHT22;22940;52.266;10.536;2023-03-23T06:03:49;12.40;99.90
37032;DHT22;22940;52.266;10.536;2023-03-23T06:06:16;12.50;99.90
37032;DHT22;22940;52.266;10.536;2023-03-23T06:08:43;12.50;99.90
37032;DHT22;22940;52.266;10.536;2023-03-23T06:11:08;12.50;99.90
37032;DHT22;22940;52.266;10.536;2023-03-23T06:13:34;12.60;99.90
37032;DHT22;22940;52.266;10.536;2023-03-23T06:15:59;12.60;99.90
37032;DHT22;22940;52.266;10.536;2023-03-23T06:18:25;12.60;99.90
37032;DHT22;22940;52.266;10.536;2023-03-23T06:20:51;12.60;99.90
37032;DHT22;22940;52.266;10.536;2023-03-23T06:23:18;12.60;99.90
37032;DHT22;22940;52.266;10.536;2023-03-23T06:25:44;12.60;99.90
37032;DHT22;22940;52.266;10.536;2023-03-23T06:28:10;12.60;99.90
37032;DHT22;22940;52.266;10.536;2023-03-23T06:30:36;12.60;99.90
37032;DHT22;22940;52.266;10.536;2023-03-23T06:33:01;12.60;99.90
37032;DHT22;22940;52.266;10.536;2023-03-23T06:35:31;12.80;99.90
37032;DHT22;22940;52.266;10.536;2023-03-23T06:37:56;12.80;99.80
37032;DHT22;22940;52.266;10.536;2023-03-23T06:40:23;12.80;99.80
37032;DHT22;22940;52.266;10.536;2023-03-23T06:42:49;12.70;99.90
37032;DHT22;22940;52.266;10.536;2023-03-23T06:45:14;12.80;99.90
37032;DHT22;22940;52.266;10.536;2023-03-23T06:47:40;12.80;99.90
37032;DHT22;22940;52.266;10.536;2023-03-23T06:50:05;12.80;99.90
37032;DHT22;22940;52.266;10.536;2023-03-23T06:52:31;12.80;99.90
37032;DHT22;22940;52.266;10.536;2023-03-23T06:54:57;12.80;99.90
37032;DHT22;22940;52.266;10.536;2023-03-23T06:57:22;12.80;99.90
37032;DHT22;22940;52.266;10.536;2023-03-23T06:59:48;12.80;99.90
37032;DHT22;22940;52.266;10.536;2023-03-23T07:02:13;12.70;99.90
37032;DHT22;22940;52.266;10.536;2023-03-23T07:04:40;12.60;99.90
37032;DHT22;22940;52.266;10.536;2023-03-23T07:07:08;12.70;99.90
37032;DHT22;22940;52.266;10.536;2023-03-23T07:09:34;12.80;99.90
37032;DHT22;22940;52.266;10.536;2023-03-23T07:11:59;12.80;99.90
37032;DHT22;22940;52.266;10.536;2023-03-23T07:14:25;12.80;99.90
37032;DHT22;22940;52.266;10.536;2023-03-23T07:16:51;12.90;99.90
37032;DHT22;22940;52.266;10.536;2023-03-23T07:19:18;13.00;98.20
37032;DHT22;22940;52.266;10.536;2023-03-23T07:21:44;13.40;96.40
37032;DHT22;22940;52.266;10.536;2023-03-23T07:24:12;13.30;93.90
37032;DHT22;22940;52.266;10.536;2023-03-23T07:26:41;13.50;77.80
37032;DHT22;22940;52.266;10.536;2023-03-23T07:29:07;13.30;62.30
37032;DHT22;22940;52.266;10.536;2023-03-23T07:31:33;13.30;53.90
37032;DHT22;22940;52.266;10.536;2023-03-23T07:33:58;13.10;60.60
37032;DHT22;22940;52.266;10.536;2023-03-23T07:36:24;13.10;62.10
37032;DHT22;22940;52.266;10.536;2023-03-23T07:38:51;13.20;61.20
37032;DHT22;22940;52.266;10.536;2023-03-23T07:41:19;13.10;57.90
37032;DHT22;22940;52.266;10.536;2023-03-23T07:43:44;12.90;60.40
37032;DHT22;22940;52.266;10.536;2023-03-23T07:46:10;13.10;58.30
37032;DHT22;22940;52.266;10.536;2023-03-23T07:48:36;13.10;57.30
37032;DHT22;22940;52.266;10.536;2023-03-23T07:51:03;13.00;55.80
37032;DHT22;22940;52.266;10.536;2023-03-23T07:53:28;13.10;57.70
37032;DHT22;22940;52.266;10.536;2023-03-23T07:55:54;13.20;53.50
37032;DHT22;22940;52.266;10.536;2023-03-23T07:58:20;13.20;55.90
37032;DHT22;22940;52.266;10.536;2023-03-23T08:00:46;13.30;49.10
37032;DHT22;22940;52.266;10.536;2023-03-23T08:03:11;13.50;37.30
37032;DHT22;22940;52.266;10.536;2023-03-23T08:05:37;13.50;27.80
37032;DHT22;22940;52.266;10.536;2023-03-23T08:08:03;13.60;22.30
37032;DHT22;22940;52.266;10.536;2023-03-23T08:10:29;13.80;20.50
37032;DHT22;22940;52.266;10.536;2023-03-23T08:12:56;13.90;6.90
37032;DHT22;22940;52.266;10.536;2023-03-23T08:15:22;14.00;1.00
37032;DHT22;22940;52.266;10.536;2023-03-23T08:17:48;14.00;1.00
37032;DHT22;22940;52.266;10.536;2023-03-23T08:20:14;14.10;1.00
37032;DHT22;22940;52.266;10.536;2023-03-23T08:22:40;14.20;1.00
37032;DHT22;22940;52.266;10.536;2023-03-23T08:25:07;14.30;1.00
37032;DHT22;22940;52.266;10.536;2023-03-23T08:27:33;14.30;1.00
37032;DHT22;22940;52.266;10.536;2023-03-23T08:29:59;14.30;1.00
37032;DHT22;22940;52.266;10.536;2023-03-23T08:32:25;14.50;1.00
37032;DHT22;22940;52.266;10.536;2023-03-23T08:34:51;14.60;1.00
37032;DHT22;22940;52.266;10.536;2023-03-23T08:37:16;14.50;1.00
37032;DHT22;22940;52.266;10.536;2023-03-23T08:39:42;14.60;1.00
37032;DHT22;22940;52.266;10.536;2023-03-23T08:42:08;14.80;1.00
37032;DHT22;22940;52.266;10.536;2023-03-23T08:44:35;14.90;1.00
37032;DHT22;22940;52.266;10.536;2023-03-23T08:47:01;15.00;1.00
37032;DHT22;22940;52.266;10.536;2023-03-23T08:49:28;14.80;1.00
37032;DHT22;22940;52.266;10.536;2023-03-23T08:51:56;14.70;1.00
37032;DHT22;22940;52.266;10.536;2023-03-23T08:54:21;14.70;1.00
37032;DHT22;22940;52.266;10.536;2023-03-23T08:56:47;14.70;1.00
37032;DHT22;22940;52.266;10.536;2023-03-23T08:59:12;14.60;1.00
37032;DHT22;22940;52.266;10.536;2023-03-23T09:01:38;14.60;1.00
37032;DHT22;22940;52.266;10.536;2023-03-23T09:04:03;14.60;1.00
37032;DHT22;22940;52.266;10.536;2023-03-23T09:06:29;14.60;1.00
37032;DHT22;22940;52.266;10.536;2023-03-23T09:08:55;14.70;1.00
37032;DHT22;22940;52.266;10.536;2023-03-23T09:11:21;14.60;1.00
37032;DHT22;22940;52.266;10.536;2023-03-23T09:13:47;14.60;1.00
37032;DHT22;22940;52.266;10.536;2023-03-23T09:16:13;14.60;1.00
37032;DHT22;22940;52.266;10.536;2023-03-23T09:18:38;14.60;1.00
37032;DHT22;22940;52.266;10.536;2023-03-23T09:21:04;14.60;1.00
37032;DHT22;22940;52.266;10.536;2023-03-23T09:23:29;14.80;1.00
37032;DHT22;22940;52.266;10.536;2023-03-23T09:25:55;14.90;1.00
37032;DHT22;22940;52.266;10.536;2023-03-23T09:28:21;14.90;1.00
37032;DHT22;22940;52.266;10.536;2023-03-23T09:30:47;15.00;1.00
37032;DHT22;22940;52.266;10.536;2023-03-23T09:33:13;14.90;1.00
37032;DHT22;22940;52.266;10.536;2023-03-23T09:35:39;14.90;1.00
37032;DHT22;22940;52.266;10.536;2023-03-23T09:38:07;14.90;1.00
37032;DHT22;22940;52.266;10.536;2023-03-23T09:50:27;14.90;1.00
37032;DHT22;22940;52.266;10.536;2023-03-23T09:53:02;14.90;1.00
37032;DHT22;22940;52.266;10.536;2023-03-23T09:55:28;14.80;1.00
37032;DHT22;22940;52.266;10.536;2023-03-23T09:58:09;14.80;1.00
37032;DHT22;22940;52.266;10.536;2023-03-23T10:00:36;14.80;1.00
37032;DHT22;22940;52.266;10.536;2023-03-23T10:03:06;14.90;1.00
37032;DHT22;22940;52.266;10.536;2023-03-23T10:05:39;14.80;1.00
37032;DHT22;22940;52.266;10.536;2023-03-23T10:08:09;14.90;1.00
37032;DHT22;22940;52.266;10.536;2023-03-23T10:10:45;14.80;1.00
37032;DHT22;22940;52.266;10.536;2023-03-23T10:16:02;14.80;1.00
37032;DHT22;22940;52.266;10.536;2023-03-23T10:18:36;14.90;1.00
37032;DHT22;22940;52.266;10.536;2023-03-23T10:21:01;15.00;1.00
37032;DHT22;22940;52.266;10.536;2023-03-23T10:26:19;15.00;1.00
37032;DHT22;22940;52.266;10.536;2023-03-23T10:28:48;14.90;1.00
37032;DHT22;22940;52.266;10.536;2023-03-23T10:31:50;15.00;1.00
37032;DHT22;22940;52.266;10.536;2023-03-23T10:34:16;15.10;1.00
37032;DHT22;22940;52.266;10.536;2023-03-23T10:36:50;15.30;1.00
37032;DHT22;22940;52.266;10.536;2023-03-23T10:39:18;15.30;1.00
37032;DHT22;22940;52.266;10.536;2023-03-23T10:41:44;15.30;1.00
37032;DHT22;22940;52.266;10.536;2023-03-23T10:44:27;15.40;1.00
37032;DHT22;22940;52.266;10.536;2023-03-23T10:47:02;15.60;1.00
37032;DHT22;22940;52.266;10.536;2023-03-23T10:54:31;15.70;1.00
37032;DHT22;22940;52.266;10.536;2023-03-23T10:56:58;15.60;1.00
37032;DHT22;22940;52.266;10.536;2023-03-23T10:59:27;15.60;1.00
37032;DHT22;22940;52.266;10.536;2023-03-23T11:01:57;15.50;1.00
37032;DHT22;22940;52.266;10.536;2023-03-23T11:04:23;15.60;1.00
37032;DHT22;22940;52.266;10.536;2023-03-23T11:06:50;15.50;1.00
37032;DHT22;22940;52.266;10.536;2023-03-23T11:09:18;15.50;1.00
37032;DHT22;22940;52.266;10.536;2023-03-23T11:11:51;15.50;1.00
37032;DHT22;22940;52.266;10.536;2023-03-23T11:14:28;15.50;1.00
37032;DHT22;22940;52.266;10.536;2023-03-23T11:16:54;15.50;1.00
37032;DHT22;22940;52.266;10.536;2023-03-23T11:19:28;15.60;1.00
37032;DHT22;22940;52.266;10.536;2023-03-23T11:22:00;15.60;1.00
37032;DHT22;22940;52.266;10.536;2023-03-23T11:24:31;15.70;1.00
37032;DHT22;22940;52.266;10.536;2023-03-23T11:26:57;15.90;1.00
37032;DHT22;22940;52.266;10.536;2023-03-23T11:29:27;16.30;1.00
37032;DHT22;22940;52.266;10.536;2023-03-23T11:32:01;16.50;1.00
37032;DHT22;22940;52.266;10.536;2023-03-23T11:34:32;16.60;1.00
37032;DHT22;22940;52.266;10.536;2023-03-23T11:39:27;16.80;1.00
37032;DHT22;22940;52.266;10.536;2023-03-23T11:41:54;17.40;1.00
37032;DHT22;22940;52.266;10.536;2023-03-23T11:44:20;18.00;1.00
37032;DHT22;22940;52.266;10.536;2023-03-23T11:46:49;18.40;1.00
37032;DHT22;22940;52.266;10.536;2023-03-23T11:49:25;18.20;1.00
37032;DHT22;22940;52.266;10.536;2023-03-23T11:51:54;18.10;1.00
37032;DHT22;22940;52.266;10.536;2023-03-23T11:56:45;18.00;1.00
37032;DHT22;22940;52.266;10.536;2023-03-23T11:59:13;18.00;1.00
37032;DHT22;22940;52.266;10.536;2023-03-23T12:11:49;19.00;1.00
37032;DHT22;22940;52.266;10.536;2023-03-23T12:14:29;18.60;1.00
37032;DHT22;22940;52.266;10.536;2023-03-23T12:25:02;18.90;1.00
37032;DHT22;22940;52.266;10.536;2023-03-23T12:27:40;19.00;1.00
37032;DHT22;22940;52.266;10.536;2023-03-23T12:48:25;18.20;1.00
37032;DHT22;22940;52.266;10.536;2023-03-23T12:53:40;17.90;1.00
37032;DHT22;22940;52.266;10.536;2023-03-23T12:56:12;17.50;1.00
37032;DHT22;22940;52.266;10.536;2023-03-23T12:58:50;17.50;1.00
37032;DHT22;22940;52.266;10.536;2023-03-23T13:06:18;17.20;1.00
37032;DHT22;22940;52.266;10.536;2023-03-23T13:09:04;16.90;1.00
37032;DHT22;22940;52.266;10.536;2023-03-23T13:26:15;16.70;1.00
37032;DHT22;22940;52.266;10.536;2023-03-23T13:28:51;16.80;1.00
37032;DHT22;22940;52.266;10.536;2023-03-23T13:31:26;16.70;1.00
37032;DHT22;22940;52.266;10.536;2023-03-23T13:34:10;16.60;1.00
37032;DHT22;22940;52.266;10.536;2023-03-23T13:39:05;15.80;1.00
37032;DHT22;22940;52.266;10.536;2023-03-23T13:41:33;15.80;1.00
37032;DHT22;22940;52.266;10.536;2023-03-23T13:44:18;15.50;1.00
37032;DHT22;22940;52.266;10.536;2023-03-23T13:46:53;15.10;1.00
37032;DHT22;22940;52.266;10.536;2023-03-23T13:49:20;15.10;1.00
37032;DHT22;22940;52.266;10.536;2023-03-23T13:51:59;14.90;1.00
37032;DHT22;22940;52.266;10.536;2023-03-23T13:54:30;14.90;1.00
37032;DHT22;22940;52.266;10.536;2023-03-23T13:57:02;14.80;1.00
37032;DHT22;22940;52.266;10.536;2023-03-23T13:59:30;14.90;1.00
37032;DHT22;22940;52.266;10.536;2023-03-23T14:11:46;15.30;1.00
37032;DHT22;22940;52.266;10.536;2023-03-23T14:14:14;15.50;1.00
37032;DHT22;22940;52.266;10.536;2023-03-23T14:16:41;15.60;1.00
37032;DHT22;22940;52.266;10.536;2023-03-23T14:21:49;15.70;1.00
37032;DHT22;22940;52.266;10.536;2023-03-23T14:24:16;15.80;1.00
37032;DHT22;22940;52.266;10.536;2023-03-23T14:26:43;15.80;1.00
37032;DHT22;22940;52.266;10.536;2023-03-23T14:29:10;15.50;1.00
37032;DHT22;22940;52.266;10.536;2023-03-23T14:31:36;15.30;1.00
37032;DHT22;22940;52.266;10.536;2023-03-23T14:34:03;15.10;1.00
37032;DHT22;22940;52.266;10.536;2023-03-23T14:36:30;15.10;1.00
37032;DHT22;22940;52.266;10.536;2023-03-23T14:39:18;15.10;1.00
37032;DHT22;22940;52.266;10.536;2023-03-23T14:41:41;15.10;1.00
37032;DHT22;22940;52.266;10.536;2023-03-23T14:44:10;14.90;1.00
37032;DHT22;22940;52.266;10.536;2023-03-23T14:46:38;14.80;1.00
37032;DHT22;22940;52.266;10.536;2023-03-23T14:51:32;14.20;1.00
37032;DHT22;22940;52.266;10.536;2023-03-23T14:53:58;14.30;1.00
37032;DHT22;22940;52.266;10.536;2023-03-23T14:56:23;14.20;1.00
37032;DHT22;22940;52.266;10.536;2023-03-23T14:59:00;14.00;1.00
37032;DHT22;22940;52.266;10.536;2023-03-23T15:01:28;13.90;1.00
37032;DHT22;22940;52.266;10.536;2023-03-23T15:04:14;13.90;1.00
37032;DHT22;22940;52.266;10.536;2023-03-23T15:06:41;13.90;1.00
37032;DHT22;22940;52.266;10.536;2023-03-23T15:09:10;13.90;1.00
37032;DHT22;22940;52.266;10.536;2023-03-23T15:58:14;13.60;1.00
37032;DHT22;22940;52.266;10.536;2023-03-23T16:00:40;13.70;1.00
37032;DHT22;22940;52.266;10.536;2023-03-23T16:03:10;13.60;1.00
37032;DHT22;22940;52.266;10.536;2023-03-23T16:05:36;13.50;1.00
37032;DHT22;22940;52.266;10.536;2023-03-23T16:08:01;13.70;1.00
37032;DHT22;22940;52.266;10.536;2023-03-23T16:10:27;13.50;1.00
37032;DHT22;22940;52.266;10.536;2023-03-23T16:12:53;13.40;1.00
37032;DHT22;22940;52.266;10.536;2023-03-23T16:15:18;13.50;1.00
37032;DHT22;22940;52.266;10.536;2023-03-23T16:17:44;13.60;1.00
37032;DHT22;22940;52.266;10.536;2023-03-23T16:20:11;13.60;1.00
37032;DHT22;22940;52.266;10.536;2023-03-23T16:22:37;13.80;1.00
37032;DHT22;22940;52.266;10.536;2023-03-23T16:25:03;13.80;1.00
37032;DHT22;22940;52.266;10.536;2023-03-23T16:27:29;13.80;1.00
37032;DHT22;22940;52.266;10.536;2023-03-23T16:29:54;13.90;1.00
37032;DHT22;22940;52.266;10.536;2023-03-23T16:32:21;13.80;1.00
37032;DHT22;22940;52.266;10.536;2023-03-23T16:34:47;13.80;1.00
37032;DHT22;22940;52.266;10.536;2023-03-23T16:37:13;13.80;1.00
37032;DHT22;22940;52.266;10.536;2023-03-23T16:39:38;13.80;1.00
37032;DHT22;22940;52.266;10.536;2023-03-23T16:42:04;13.80;1.00
37032;DHT22;22940;52.266;10.536;2023-03-23T16:44:29;13.80;1.00
37032;DHT22;22940;52.266;10.536;2023-03-23T16:46:55;13.80;1.00
37032;DHT22;22940;52.266;10.536;2023-03-23T16:49:20;13.80;1.00
37032;DHT22;22940;52.266;10.536;2023-03-23T16:51:46;13.90;1.00
37032;DHT22;22940;52.266;10.536;2023-03-23T16:56:39;13.80;2.70
37032;DHT22;22940;52.266;10.536;2023-03-23T16:59:05;13.90;1.00
37032;DHT22;22940;52.266;10.536;2023-03-23T17:01:30;13.90;1.00
37032;DHT22;22940;52.266;10.536;2023-03-23T17:03:56;13.90;1.00
37032;DHT22;22940;52.266;10.536;2023-03-23T17:06:21;13.80;1.00
37032;DHT22;22940;52.266;10.536;2023-03-23T17:08:47;13.80;1.00
37032;DHT22;22940;52.266;10.536;2023-03-23T17:11:12;13.80;1.00
37032;DHT22;22940;52.266;10.536;2023-03-23T17:13:38;13.70;1.00
37032;DHT22;22940;52.266;10.536;2023-03-23T17:16:04;13.70;1.00
37032;DHT22;22940;52.266;10.536;2023-03-23T17:18:29;13.80;1.00
37032;DHT22;22940;52.266;10.536;2023-03-23T17:20:57;14.10;1.00
37032;DHT22;22940;52.266;10.536;2023-03-23T17:23:23;13.80;1.00
37032;DHT22;22940;52.266;10.536;2023-03-23T17:25:48;13.80;1.00
37032;DHT22;22940;52.266;10.536;2023-03-23T17:28:14;13.80;1.20
37032;DHT22;22940;52.266;10.536;2023-03-23T17:30:40;13.70;2.50
37032;DHT22;22940;52.266;10.536;2023-03-23T17:33:06;13.60;3.80
37032;DHT22;22940;52.266;10.536;2023-03-23T17:35:32;13.60;3.80
37032;DHT22;22940;52.266;10.536;2023-03-23T17:37:57;13.60;2.50
37032;DHT22;22940;52.266;10.536;2023-03-23T17:40:23;13.70;2.50
37032;DHT22;22940;52.266;10.536;2023-03-23T17:42:49;13.60;3.50
37032;DHT22;22940;52.266;10.536;2023-03-23T17:45:14;13.60;3.90
37032;DHT22;22940;52.266;10.536;2023-03-23T17:47:40;13.60;5.90
37032;DHT22;22940;52.266;10.536;2023-03-23T17:50:06;13.60;2.40
37032;DHT22;22940;52.266;10.536;2023-03-23T17:52:32;13.60;3.40
37032;DHT22;22940;52.266;10.536;2023-03-23T17:54:57;13.60;6.50
37032;DHT22;22940;52.266;10.536;2023-03-23T17:57:23;13.60;7.30
37032;DHT22;22940;52.266;10.536;2023-03-23T17:59:48;13.70;5.50
37032;DHT22;22940;52.266;10.536;2023-03-23T18:26:42;13.50;10.70
37032;DHT22;22940;52.266;10.536;2023-03-23T18:29:08;13.50;3.90
37032;DHT22;22940;52.266;10.536;2023-03-23T18:31:33;13.60;4.90
37032;DHT22;22940;52.266;10.536;2023-03-23T18:34:04;13.50;4.50
37032;DHT22;22940;52.266;10.536;2023-03-23T18:36:29;13.50;7.50
37032;DHT22;22940;52.266;10.536;2023-03-23T18:38:56;13.50;8.10
37032;DHT22;22940;52.266;10.536;2023-03-23T18:41:22;13.50;7.80
37032;DHT22;22940;52.266;10.536;2023-03-23T18:43:47;13.50;8.00